Time;durP1;ratioP1;P1;durP2;ratioP2;P2;SDS_P1;SDS_P2;PMS_P1;PMS_P2;Temp;Humidity;BMP_temperature;BMP_pressure;BME280_temperature;BME280_humidity;BME280_pressure;Samples;Min_cycle;Max_cycle;Signal;HPM_P1;HPM_P2
2021/06/27 00:00:40;;;;;;;9.98;5.65;;;22.30;99.90;;;;;;5075689;28;20032;-78
2021/06/27 00:03:07;;;;;;;10.95;5.82;;;22.40;99.90;;;;;;5077155;28;20022;-76
2021/06/27 00:05:35;;;;;;;9.32;6.00;;;22.30;99.90;;;;;;5076914;28;20031;-74
2021/06/27 00:08:02;;;;;;;10.07;6.03;;;22.20;99.90;;;;;;5076748;28;20059;-75
2021/06/27 00:10:32;;;;;;;10.85;5.75;;;22.10;99.90;;;;;;5075245;28;20024;-78
2021/06/27 00:12:59;;;;;;;7.85;6.03;;;22.10;99.90;;;;;;5075311;28;20344;-78
2021/06/27 00:15:40;;;;;;;9.77;6.10;;;21.90;99.90;;;;;;5076578;28;20478;-74
2021/06/27 00:18:08;;;;;;;7.72;5.82;;;21.80;99.90;;;;;;5076797;28;20028;-77
2021/06/27 00:20:37;;;;;;;10.43;5.80;;;21.50;99.90;;;;;;5076752;28;20474;-78
2021/06/27 00:23:04;;;;;;;8.35;6.03;;;21.50;99.90;;;;;;5076231;28;20041;-77
2021/06/27 00:25:32;;;;;;;11.70;7.07;;;21.60;99.90;;;;;;5076674;28;20021;-74
2021/06/27 00:27:59;;;;;;;14.18;9.90;;;21.40;99.90;;;;;;5076986;28;20219;-74
2021/06/27 00:30:26;;;;;;;22.80;13.70;;;21.30;99.90;;;;;;5076372;28;20028;-74
2021/06/27 00:32:53;;;;;;;14.20;10.90;;;21.30;99.90;;;;;;5076727;28;20486;-74
2021/06/27 00:35:20;;;;;;;12.23;7.70;;;21.20;99.90;;;;;;5076287;28;20111;-75
2021/06/27 00:37:47;;;;;;;12.55;7.10;;;21.10;99.90;;;;;;5075123;28;20544;-75
2021/06/27 00:40:17;;;;;;;10.90;6.50;;;21.30;99.90;;;;;;5076335;28;20356;-79
2021/06/27 00:42:43;;;;;;;10.88;6.00;;;21.20;99.90;;;;;;5076125;28;20024;-75
2021/06/27 00:45:11;;;;;;;8.18;5.95;;;21.20;99.90;;;;;;5074807;28;20025;-75
2021/06/27 00:47:38;;;;;;;12.20;6.20;;;21.30;99.90;;;;;;5076138;28;20024;-75
2021/06/27 00:50:07;;;;;;;9.02;6.10;;;21.30;99.90;;;;;;5076251;28;20020;-74
2021/06/27 00:52:34;;;;;;;10.63;6.22;;;21.30;99.90;;;;;;5074865;28;20370;-75
2021/06/27 00:54:59;;;;;;;9.75;6.05;;;21.40;99.90;;;;;;5076633;28;20028;-75
2021/06/27 00:57:25;;;;;;;10.40;6.00;;;21.10;99.90;;;;;;5076324;28;20416;-75
2021/06/27 00:59:51;;;;;;;8.23;5.80;;;21.10;99.90;;;;;;5076070;28;20036;-78
2021/06/27 01:02:17;;;;;;;12.18;5.93;;;21.10;99.90;;;;;;5075209;28;20020;-75
2021/06/27 01:04:43;;;;;;;10.30;6.07;;;21.10;99.90;;;;;;5075925;28;20103;-79
2021/06/27 01:07:09;;;;;;;9.43;6.00;;;21.10;99.90;;;;;;5075830;28;20107;-74
2021/06/27 01:09:35;;;;;;;9.57;5.75;;;21.10;99.90;;;;;;5075608;28;20162;-78
2021/06/27 01:12:02;;;;;;;7.00;6.03;;;21.00;99.90;;;;;;5076048;28;20056;-78
2021/06/27 01:14:28;;;;;;;9.07;6.40;;;21.00;99.90;;;;;;5075486;28;20474;-75
2021/06/27 01:16:54;;;;;;;6.70;5.75;;;21.00;99.90;;;;;;5075750;28;20016;-78
2021/06/27 01:19:20;;;;;;;8.85;5.90;;;20.80;99.90;;;;;;5075621;28;20020;-79
2021/06/27 01:21:52;;;;;;;10.02;6.25;;;20.80;99.90;;;;;;5075345;28;20071;-79
2021/06/27 01:24:20;;;;;;;9.57;5.97;;;20.80;99.90;;;;;;5075490;28;20107;-78
2021/06/27 01:26:47;;;;;;;8.50;6.00;;;20.90;99.90;;;;;;5074155;28;20067;-78
2021/06/27 01:29:15;;;;;;;7.68;5.35;;;21.00;99.90;;;;;;5075506;28;20024;-78
2021/06/27 01:31:42;;;;;;;7.32;5.50;;;21.10;99.90;;;;;;5075225;28;20051;-77
2021/06/27 01:34:09;;;;;;;7.70;5.70;;;21.10;99.90;;;;;;5075404;28;20068;-78
2021/06/27 01:36:35;;;;;;;8.48;5.60;;;21.20;99.90;;;;;;5074030;28;20027;-78
2021/06/27 01:39:01;;;;;;;6.57;5.45;;;21.30;99.90;;;;;;5074117;28;20029;-79
2021/06/27 01:41:27;;;;;;;8.40;5.18;;;21.30;99.90;;;;;;5073941;28;20021;-77
2021/06/27 01:43:54;;;;;;;10.70;6.18;;;21.30;99.90;;;;;;5073987;28;20021;-78
2021/06/27 01:46:20;;;;;;;7.93;5.75;;;21.30;99.90;;;;;;5074862;28;20036;-78
2021/06/27 01:48:46;;;;;;;7.88;5.72;;;21.10;99.90;;;;;;5074992;28;20040;-77
2021/06/27 01:51:12;;;;;;;10.32;6.22;;;21.00;99.90;;;;;;5073759;28;20059;-76
2021/06/27 01:53:39;;;;;;;8.20;5.57;;;20.70;99.90;;;;;;5074773;28;20043;-79
2021/06/27 01:56:07;;;;;;;7.68;5.28;;;20.90;99.90;;;;;;5074734;28;20036;-78
2021/06/27 01:58:50;;;;;;;7.30;5.50;;;20.80;99.90;;;;;;5074967;28;20104;-78
2021/06/27 02:01:28;;;;;;;8.23;5.53;;;20.90;99.90;;;;;;5075111;28;20029;-75
2021/06/27 02:03:55;;;;;;;7.35;6.00;;;20.70;99.90;;;;;;5075091;28;20035;-77
2021/06/27 02:06:22;;;;;;;9.77;5.72;;;20.70;99.90;;;;;;5074581;28;20407;-79
2021/06/27 02:08:49;;;;;;;8.75;5.93;;;20.70;99.90;;;;;;5074948;28;20024;-77
2021/06/27 02:11:18;;;;;;;9.57;6.72;;;20.70;99.90;;;;;;5074572;28;20459;-75
2021/06/27 02:13:44;;;;;;;12.18;7.70;;;20.80;99.90;;;;;;5073365;28;20032;-75
2021/06/27 02:16:10;;;;;;;13.68;8.88;;;20.70;99.90;;;;;;5073259;28;20031;-75
2021/06/27 02:18:49;;;;;;;8.18;6.50;;;20.80;99.90;;;;;;5072632;28;20024;-78
2021/06/27 02:21:31;;;;;;;9.77;6.03;;;20.70;99.90;;;;;;5074544;28;20493;-78
2021/06/27 02:23:58;;;;;;;6.72;6.00;;;20.70;99.90;;;;;;5072632;28;20055;-75
2021/06/27 02:26:25;;;;;;;7.07;5.35;;;20.60;99.90;;;;;;5074626;28;20100;-78
2021/06/27 02:28:52;;;;;;;6.43;5.38;;;20.40;99.90;;;;;;5074484;28;20029;-76
2021/06/27 02:31:18;;;;;;;6.57;5.53;;;20.50;99.90;;;;;;5074565;28;20032;-75
2021/06/27 02:33:45;;;;;;;9.77;5.88;;;20.40;99.90;;;;;;5074019;28;20048;-76
2021/06/27 02:36:11;;;;;;;9.32;5.82;;;20.40;99.90;;;;;;5074034;28;20032;-75
2021/06/27 02:38:38;;;;;;;7.03;5.28;;;20.50;99.90;;;;;;5074097;28;20052;-77
2021/06/27 02:41:06;;;;;;;8.15;5.70;;;20.70;99.90;;;;;;5073945;28;20025;-78
2021/06/27 02:43:32;;;;;;;8.00;5.53;;;20.70;99.90;;;;;;5073928;28;20021;-75
2021/06/27 02:45:58;;;;;;;9.10;5.80;;;20.80;99.90;;;;;;5074157;28;20074;-76
2021/06/27 02:48:24;;;;;;;8.60;5.60;;;20.80;99.90;;;;;;5074099;28;20024;-79
2021/06/27 02:50:50;;;;;;;9.07;5.70;;;20.80;99.90;;;;;;5074343;28;20020;-77
2021/06/27 02:53:16;;;;;;;9.50;5.40;;;20.70;99.90;;;;;;5073747;28;20017;-79
2021/06/27 02:55:42;;;;;;;8.05;5.68;;;20.60;99.90;;;;;;5073972;28;20036;-77
2021/06/27 02:58:08;;;;;;;10.77;5.47;;;20.50;99.90;;;;;;5074152;28;20362;-77
2021/06/27 03:00:34;;;;;;;9.27;5.50;;;20.50;99.90;;;;;;5073992;28;20025;-76
2021/06/27 03:03:00;;;;;;;9.85;5.45;;;20.50;99.90;;;;;;5073973;28;20150;-78
2021/06/27 03:05:27;;;;;;;8.63;5.60;;;20.40;99.90;;;;;;5073946;28;20096;-77
2021/06/27 03:07:53;;;;;;;10.75;5.75;;;20.40;99.90;;;;;;5073684;28;20039;-78
2021/06/27 03:10:20;;;;;;;7.07;5.20;;;20.40;99.90;;;;;;5073969;28;20058;-77
2021/06/27 03:12:49;;;;;;;7.45;4.82;;;20.50;99.90;;;;;;5072739;28;20115;-75
2021/06/27 03:15:17;;;;;;;8.13;4.90;;;20.60;99.90;;;;;;5073635;28;20027;-78
2021/06/27 03:17:43;;;;;;;9.55;5.15;;;20.60;99.90;;;;;;5073593;28;20078;-78
2021/06/27 03:20:12;;;;;;;8.13;4.90;;;20.80;99.90;;;;;;5073778;28;20445;-76
2021/06/27 03:22:39;;;;;;;6.70;5.20;;;20.70;99.90;;;;;;5073927;28;20027;-76
2021/06/27 03:25:07;;;;;;;10.18;6.55;;;20.80;99.90;;;;;;5073464;28;20029;-78
2021/06/27 03:27:33;;;;;;;10.32;8.70;;;20.80;99.90;;;;;;5073739;28;20103;-75
2021/06/27 03:29:59;;;;;;;12.10;10.07;;;20.80;99.90;;;;;;5073837;28;20025;-78
2021/06/27 03:32:25;;;;;;;15.32;11.93;;;20.90;99.90;;;;;;5073589;28;20033;-78
2021/06/27 03:34:51;;;;;;;11.90;10.73;;;21.00;99.90;;;;;;5071938;28;20040;-75
2021/06/27 03:37:17;;;;;;;12.07;10.48;;;20.90;99.90;;;;;;5072280;28;20032;-78
2021/06/27 03:39:43;;;;;;;13.20;11.00;;;20.90;99.90;;;;;;5073943;28;20078;-75
2021/06/27 03:42:10;;;;;;;12.02;8.50;;;21.00;99.90;;;;;;5073630;28;20020;-78
2021/06/27 03:44:36;;;;;;;11.90;7.15;;;21.00;99.90;;;;;;5073832;28;20017;-75
2021/06/27 03:47:02;;;;;;;7.65;6.05;;;20.90;99.90;;;;;;5073502;28;20034;-78
2021/06/27 03:49:28;;;;;;;8.02;5.93;;;21.00;99.90;;;;;;5073313;28;20021;-77
2021/06/27 03:51:54;;;;;;;10.00;5.60;;;21.00;99.90;;;;;;5073650;28;20116;-77
2021/06/27 03:54:20;;;;;;;10.13;5.35;;;21.10;99.90;;;;;;5071977;28;20027;-76
2021/06/27 03:56:46;;;;;;;8.52;5.13;;;21.10;99.90;;;;;;5073378;28;20079;-78
2021/06/27 03:59:12;;;;;;;7.88;5.25;;;21.10;99.90;;;;;;5073518;28;20029;-76
2021/06/27 04:01:38;;;;;;;7.40;5.35;;;21.00;99.90;;;;;;5073398;28;20055;-78
2021/06/27 04:04:04;;;;;;;8.07;5.20;;;20.90;99.90;;;;;;5074070;28;20068;-78
2021/06/27 04:06:30;;;;;;;6.43;5.40;;;20.90;99.90;;;;;;5073923;28;20104;-78
2021/06/27 04:08:56;;;;;;;8.20;5.18;;;20.80;99.90;;;;;;5073395;28;20367;-78
2021/06/27 04:11:22;;;;;;;9.40;5.53;;;20.80;99.90;;;;;;5073351;28;20036;-76
2021/06/27 04:13:48;;;;;;;7.78;4.88;;;20.90;99.90;;;;;;5073068;28;20028;-75
2021/06/27 04:16:16;;;;;;;8.88;5.00;;;20.90;99.90;;;;;;5073526;28;20092;-76
2021/06/27 04:18:42;;;;;;;6.72;5.03;;;21.10;99.90;;;;;;5073367;28;20032;-78
2021/06/27 04:21:08;;;;;;;10.70;5.70;;;21.00;99.90;;;;;;5073348;28;20502;-75
2021/06/27 04:23:38;;;;;;;6.70;5.15;;;20.90;99.90;;;;;;5072875;28;20072;-78
2021/06/27 04:26:04;;;;;;;7.85;5.43;;;21.00;99.90;;;;;;5071774;28;20024;-77
2021/06/27 04:28:31;;;;;;;7.20;5.15;;;21.00;99.90;;;;;;5073163;28;20027;-78
2021/06/27 04:30:57;;;;;;;6.85;4.68;;;21.20;99.90;;;;;;5071901;28;20024;-77
2021/06/27 04:33:23;;;;;;;9.10;5.30;;;21.20;99.90;;;;;;5073152;28;20020;-75
2021/06/27 04:35:49;;;;;;;7.30;4.90;;;21.30;99.90;;;;;;5072927;28;20466;-75
2021/06/27 04:38:18;;;;;;;7.45;5.07;;;21.40;99.90;;;;;;5075419;28;20024;-74
2021/06/27 04:40:45;;;;;;;9.30;5.22;;;21.40;99.90;;;;;;5076708;28;20455;-77
2021/06/27 04:43:11;;;;;;;8.10;4.88;;;21.50;99.90;;;;;;5075042;28;20435;-76
2021/06/27 04:45:41;;;;;;;6.80;5.43;;;21.60;99.90;;;;;;5076472;28;20052;-75
2021/06/27 04:48:08;;;;;;;6.15;5.20;;;21.40;99.90;;;;;;5076536;28;20047;-78
2021/06/27 04:50:36;;;;;;;7.88;4.97;;;21.50;99.90;;;;;;5076539;28;20020;-76
2021/06/27 04:53:02;;;;;;;5.95;4.57;;;21.70;99.90;;;;;;5076449;28;20020;-74
2021/06/27 04:55:28;;;;;;;8.38;4.80;;;21.80;99.90;;;;;;5076362;28;20074;-75
2021/06/27 04:57:54;;;;;;;8.63;4.63;;;;;;;;;;5076167;28;20019;-77
2021/06/27 05:00:21;;;;;;;6.53;4.25;;;22.00;99.90;;;;;;5076283;28;20032;-77
2021/06/27 05:02:47;;;;;;;8.68;4.85;;;22.10;99.90;;;;;;5074835;28;20374;-77
2021/06/27 05:05:13;;;;;;;8.55;5.13;;;22.10;99.90;;;;;;5075902;28;20019;-75
2021/06/27 05:07:39;;;;;;;7.13;4.82;;;22.10;99.90;;;;;;5076122;28;20028;-77
2021/06/27 05:10:06;;;;;;;7.05;4.25;;;22.20;99.90;;;;;;5076127;28;20028;-76
2021/06/27 05:12:34;;;;;;;9.70;4.60;;;22.40;99.90;;;;;;5076097;28;20370;-76
2021/06/27 05:15:00;;;;;;;9.23;4.80;;;22.30;99.90;;;;;;5076031;28;20036;-76
2021/06/27 05:17:26;;;;;;;10.13;4.63;;;22.40;99.90;;;;;;5076008;28;20028;-77
2021/06/27 05:19:52;;;;;;;6.95;4.70;;;22.60;99.90;;;;;;5075851;28;20047;-77
2021/06/27 05:22:18;;;;;;;6.80;4.72;;;22.70;99.90;;;;;;5075988;28;20485;-76
2021/06/27 05:24:44;;;;;;;8.88;4.57;;;22.70;99.90;;;;;;5075209;28;20037;-77
2021/06/27 05:27:10;;;;;;;6.50;4.47;;;22.90;99.90;;;;;;5075667;28;20033;-75
2021/06/27 05:29:36;;;;;;;6.03;4.45;;;22.90;99.90;;;;;;5075622;28;20112;-75
2021/06/27 05:32:03;;;;;;;6.35;4.60;;;23.00;99.90;;;;;;5075391;28;20347;-76
2021/06/27 05:34:30;;;;;;;5.82;3.83;;;23.10;99.90;;;;;;5073982;28;20021;-77
2021/06/27 05:36:57;;;;;;;5.35;4.47;;;23.10;99.90;;;;;;5075535;28;20401;-77
2021/06/27 05:39:24;;;;;;;6.60;4.53;;;23.30;99.90;;;;;;5075229;28;20056;-75
2021/06/27 05:41:50;;;;;;;5.82;4.72;;;23.40;99.90;;;;;;5075398;28;20043;-75
2021/06/27 05:44:16;;;;;;;7.97;4.78;;;23.30;99.90;;;;;;5073927;28;20059;-77
2021/06/27 05:46:42;;;;;;;5.25;4.75;;;23.50;99.90;;;;;;5075352;28;20060;-77
2021/06/27 05:49:08;;;;;;;10.13;4.38;;;23.40;99.90;;;;;;5075024;28;20456;-77
2021/06/27 05:51:40;;;;;;;8.07;5.07;;;23.60;99.90;;;;;;5075094;28;20017;-76
2021/06/27 05:54:07;;;;;;;6.15;4.82;;;23.50;99.90;;;;;;5074899;28;20024;-75
2021/06/27 05:56:34;;;;;;;9.00;4.60;;;23.60;99.90;;;;;;5074878;28;20020;-77
2021/06/27 05:59:00;;;;;;;5.40;4.57;;;23.70;99.90;;;;;;5075047;28;20021;-79
2021/06/27 06:01:26;;;;;;;7.78;4.53;;;23.80;99.90;;;;;;5075320;28;20536;-75
2021/06/27 06:03:51;;;;;;;5.72;4.60;;;23.90;99.90;;;;;;5074422;28;20032;-75
2021/06/27 06:06:18;;;;;;;7.90;4.30;;;24.10;99.90;;;;;;5073401;28;20371;-77
2021/06/27 06:08:45;;;;;;;9.20;4.75;;;24.30;99.90;;;;;;5074784;28;20024;-74
2021/06/27 06:11:13;;;;;;;6.80;4.38;;;24.50;99.90;;;;;;5074762;28;20028;-76
2021/06/27 06:13:40;;;;;;;6.32;4.15;;;24.50;99.90;;;;;;5073456;28;20478;-76
2021/06/27 06:16:07;;;;;;;7.32;4.72;;;24.70;99.90;;;;;;5074450;28;20486;-76
2021/06/27 06:18:35;;;;;;;5.38;4.25;;;24.70;99.90;;;;;;5074803;28;20021;-74
2021/06/27 06:21:01;;;;;;;5.22;4.03;;;24.80;99.90;;;;;;5073313;28;20558;-75
2021/06/27 06:23:27;;;;;;;5.65;4.00;;;24.90;99.90;;;;;;5074376;28;20068;-77
2021/06/27 06:25:54;;;;;;;6.45;3.90;;;25.00;99.90;;;;;;5074689;28;20482;-76
2021/06/27 06:28:20;;;;;;;6.22;3.90;;;25.00;99.90;;;;;;5073136;28;20024;-76
2021/06/27 06:30:46;;;;;;;7.28;4.15;;;25.10;99.90;;;;;;5074337;28;20489;-76
2021/06/27 06:33:12;;;;;;;5.10;4.32;;;25.10;99.90;;;;;;5074229;28;20120;-75
2021/06/27 06:35:43;;;;;;;5.68;3.83;;;25.20;99.90;;;;;;5074288;28;20111;-77
2021/06/27 06:38:10;;;;;;;9.80;3.90;;;25.30;99.90;;;;;;5073186;28;20500;-75
2021/06/27 06:40:37;;;;;;;6.15;3.88;;;25.50;99.90;;;;;;5074623;28;20035;-75
2021/06/27 06:43:04;;;;;;;6.30;4.00;;;25.50;99.90;;;;;;5074072;28;20028;-74
2021/06/27 06:45:31;;;;;;;6.32;3.70;;;25.70;99.90;;;;;;5074213;28;20013;-76
2021/06/27 06:47:57;;;;;;;7.65;4.70;;;25.70;99.90;;;;;;5072454;28;20025;-76
2021/06/27 06:50:24;;;;;;;5.03;4.10;;;25.50;99.80;;;;;;5072673;28;20081;-74
2021/06/27 06:52:50;;;;;;;4.75;3.72;;;25.80;99.80;;;;;;5074086;28;20021;-75
2021/06/27 06:55:16;;;;;;;7.25;4.13;;;26.00;99.90;;;;;;5073719;28;20025;-75
2021/06/27 06:57:42;;;;;;;5.85;3.80;;;26.10;98.40;;;;;;5073866;28;20117;-76
2021/06/27 07:01:11;;;;;;;4.05;3.50;;;26.10;97.50;;;;;;5111425;27;20406;-77
2021/06/27 07:03:37;;;;;;;5.07;3.50;;;26.50;97.90;;;;;;5109911;28;20028;-76
2021/06/27 07:06:03;;;;;;;6.40;3.60;;;26.70;97.60;;;;;;5109495;28;20020;-75
2021/06/27 07:09:46;;;;;;;3.70;3.22;;;26.90;97.00;;;;;;5091134;28;20389;-75
2021/06/27 07:12:13;;;;;;;6.07;3.58;;;27.10;96.70;;;;;;5091241;28;20020;-77
2021/06/27 07:14:38;;;;;;;5.07;3.70;;;27.00;95.70;;;;;;5091074;28;20460;-76
2021/06/27 07:17:04;;;;;;;6.20;3.45;;;27.20;95.60;;;;;;5090987;28;20021;-74
2021/06/27 07:19:30;;;;;;;6.40;3.40;;;27.30;95.60;;;;;;5091249;28;20095;-74
2021/06/27 07:21:57;;;;;;;6.82;3.67;;;27.60;95.70;;;;;;5091071;28;20025;-77
2021/06/27 07:24:22;;;;;;;4.75;3.45;;;27.60;94.50;;;;;;5091033;28;20351;-76
2021/06/27 07:26:48;;;;;;;3.78;3.28;;;27.80;94.10;;;;;;5091564;28;20028;-77
2021/06/27 07:29:14;;;;;;;4.05;3.08;;;27.90;92.90;;;;;;5089311;28;20401;-77
2021/06/27 07:31:40;;;;;;;8.30;4.05;;;27.90;93.30;;;;;;5090852;28;20028;-76
2021/06/27 07:34:06;;;;;;;6.38;3.50;;;27.90;93.30;;;;;;5090655;28;20023;-74
2021/06/27 07:36:32;;;;;;;8.32;5.65;;;27.90;93.90;;;;;;5090580;28;20027;-75
2021/06/27 07:38:58;;;;;;;4.75;3.53;;;28.30;94.10;;;;;;5090569;28;20017;-75
2021/06/27 07:41:24;;;;;;;4.70;3.40;;;;;;;;;;5090492;28;20025;-76
2021/06/27 07:43:51;;;;;;;5.90;3.30;;;28.20;92.30;;;;;;5090680;28;20055;-76
2021/06/27 07:46:18;;;;;;;5.10;3.53;;;28.30;91.30;;;;;;5091328;28;20024;-77
2021/06/27 07:48:44;;;;;;;4.60;3.13;;;28.70;94.00;;;;;;5090817;28;20031;-78
2021/06/27 07:51:10;;;;;;;6.47;3.17;;;28.70;92.30;;;;;;5091397;28;20025;-77
2021/06/27 07:53:36;;;;;;;3.28;2.92;;;28.90;91.20;;;;;;5090455;28;20028;-78
2021/06/27 07:56:03;;;;;;;5.55;3.10;;;28.90;91.40;;;;;;5090359;28;20063;-77
2021/06/27 07:58:29;;;;;;;3.90;2.88;;;29.10;91.30;;;;;;5090189;28;20028;-78
2021/06/27 08:00:54;;;;;;;3.38;2.90;;;29.10;90.60;;;;;;5090292;28;20073;-78
2021/06/27 08:03:20;;;;;;;4.68;3.45;;;29.20;90.20;;;;;;5090479;28;20016;-75
2021/06/27 08:05:46;;;;;;;5.78;3.10;;;29.20;90.00;;;;;;5091338;28;20028;-78
2021/06/27 08:08:15;;;;;;;5.43;2.97;;;29.40;90.00;;;;;;5090005;28;20047;-75
2021/06/27 08:10:42;;;;;;;4.35;2.92;;;29.50;89.70;;;;;;5088890;28;20028;-79
2021/06/27 08:13:08;;;;;;;5.35;2.67;;;29.60;90.10;;;;;;5089247;28;20021;-75
2021/06/27 08:15:34;;;;;;;4.03;2.72;;;29.50;83.40;;;;;;5092228;28;20021;-78
2021/06/27 08:18:00;;;;;;;3.40;2.75;;;29.80;86.10;;;;;;5091166;28;20020;-75
2021/06/27 08:20:26;;;;;;;3.65;2.80;;;29.60;82.70;;;;;;5082093;28;20020;-76
2021/06/27 08:22:52;;;;;;;3.63;2.70;;;29.90;86.10;;;;;;5076466;28;20021;-76
2021/06/27 08:25:19;;;;;;;3.70;2.50;;;30.40;86.50;;;;;;5076591;28;20359;-77
2021/06/27 08:27:45;;;;;;;3.67;2.83;;;30.50;82.80;;;;;;5077257;28;20107;-80
2021/06/27 08:30:15;;;;;;;3.53;2.50;;;30.30;83.10;;;;;;5075736;28;20031;-78
2021/06/27 08:32:45;;;;;;;7.38;2.50;;;30.30;83.10;;;;;;5076327;28;20393;-79
2021/06/27 08:35:17;;;;;;;4.78;2.50;;;30.40;84.80;;;;;;5075247;28;20354;-82
2021/06/27 08:37:44;;;;;;;3.63;2.60;;;29.90;78.00;;;;;;5076372;28;20481;-80
2021/06/27 08:40:12;;;;;;;2.58;2.10;;;30.10;79.00;;;;;;5075003;28;20016;-79
2021/06/27 08:42:38;;;;;;;6.20;2.10;;;30.00;79.30;;;;;;5074543;28;20028;-78
2021/06/27 08:45:09;;;;;;;7.78;2.67;;;30.30;79.00;;;;;;5076308;28;20063;-80
2021/06/27 08:47:37;;;;;;;5.80;2.40;;;30.70;79.90;;;;;;5074914;28;20021;-80
2021/06/27 08:52:44;;;;;;;3.35;1.90;;;30.40;76.00;;;;;;5091205;28;20386;-77
2021/06/27 08:55:12;;;;;;;2.90;2.15;;;31.00;78.00;;;;;;5089833;28;20039;-77
2021/06/27 08:57:39;;;;;;;3.83;1.90;;;31.10;75.90;;;;;;5091396;28;20020;-77
2021/06/27 09:00:07;;;;;;;3.55;2.13;;;31.00;75.50;;;;;;5091839;28;20358;-76
2021/06/27 09:02:33;;;;;;;2.53;2.00;;;31.10;75.90;;;;;;5091306;28;20020;-77
2021/06/27 09:04:59;;;;;;;4.85;2.00;;;31.00;75.70;;;;;;5091066;28;20107;-77
2021/06/27 09:07:26;;;;;;;3.22;2.10;;;;;;;;;;5090952;28;20028;-76
2021/06/27 09:09:52;;;;;;;3.40;2.10;;;31.30;74.60;;;;;;5091110;28;20024;-76
2021/06/27 09:12:18;;;;;;;3.05;2.10;;;31.30;74.60;;;;;;5090824;28;20051;-74
2021/06/27 09:14:46;;;;;;;4.03;2.05;;;31.30;74.30;;;;;;5089313;28;20369;-72
2021/06/27 09:17:15;;;;;;;4.70;2.28;;;31.40;76.10;;;;;;5087094;28;20225;-72
2021/06/27 09:19:56;;;;;;;3.53;2.00;;;31.40;76.70;;;;;;5088333;28;20115;-72
2021/06/27 09:22:25;;;;;;;3.28;2.03;;;31.30;72.50;;;;;;5088503;28;20024;-72
2021/06/27 09:24:51;;;;;;;3.08;2.10;;;31.70;74.10;;;;;;5088659;28;20020;-73
2021/06/27 09:27:19;;;;;;;4.97;2.20;;;31.80;74.90;;;;;;5088563;28;20466;-72
2021/06/27 09:29:45;;;;;;;3.92;2.00;;;31.90;75.20;;;;;;5088618;28;20020;-73
2021/06/27 09:32:20;;;;;;;2.45;2.08;;;31.90;76.70;;;;;;5091611;28;20024;-73
2021/06/27 09:34:46;;;;;;;4.05;2.25;;;31.70;72.00;;;;;;5092713;28;20173;-74
2021/06/27 09:37:13;;;;;;;6.20;2.35;;;31.80;72.50;;;;;;5094426;28;20020;-74
2021/06/27 09:40:00;;;;;;;4.35;2.40;;;32.10;73.90;;;;;;5090872;28;20013;-75
2021/06/27 09:42:27;;;;;;;3.45;2.20;;;31.80;72.80;;;;;;5091117;28;20033;-75
2021/06/27 09:45:04;;;;;;;3.72;2.05;;;32.20;73.30;;;;;;5090921;28;20161;-73
2021/06/27 09:47:30;;;;;;;2.45;2.00;;;32.00;70.80;;;;;;5088776;28;20031;-75
2021/06/27 09:49:56;;;;;;;31.10;3.90;;;31.80;71.10;;;;;;5090173;28;20373;-74
2021/06/27 09:52:39;;;;;;;3.75;2.20;;;32.20;73.50;;;;;;5089203;28;20052;-75
2021/06/27 09:55:11;;;;;;;4.20;1.98;;;31.90;70.70;;;;;;5088850;28;20488;-75
2021/06/27 09:57:41;;;;;;;3.83;1.90;;;32.30;74.00;;;;;;5088661;28;20469;-75
2021/06/27 10:00:22;;;;;;;3.10;1.90;;;32.80;73.50;;;;;;5088344;28;20028;-76
2021/06/27 10:03:04;;;;;;;2.95;1.90;;;33.10;70.40;;;;;;5081834;28;20028;-75
2021/06/27 10:05:31;;;;;;;4.00;1.80;;;33.20;71.40;;;;;;5076216;28;20385;-75
2021/06/27 10:07:57;;;;;;;3.38;1.70;;;33.10;69.50;;;;;;5076519;28;20023;-74
2021/06/27 10:10:23;;;;;;;7.38;2.10;;;32.60;69.30;;;;;;5074557;28;20032;-75
2021/06/27 10:12:49;;;;;;;4.22;1.90;;;32.50;70.20;;;;;;5076211;28;20028;-73
2021/06/27 10:15:15;;;;;;;3.03;1.80;;;32.70;71.70;;;;;;5075123;28;20025;-75
2021/06/27 10:17:43;;;;;;;4.70;1.65;;;32.60;69.40;;;;;;5076144;28;20025;-75
2021/06/27 10:20:16;;;;;;;3.17;2.60;;;32.70;70.80;;;;;;5075970;28;20026;-74
2021/06/27 10:22:43;;;;;;;5.07;1.80;;;32.40;68.60;;;;;;5074754;28;20433;-74
2021/06/27 10:25:12;;;;;;;2.10;1.73;;;32.80;71.40;;;;;;5076186;28;20037;-74
2021/06/27 10:27:39;;;;;;;3.70;2.10;;;32.60;70.40;;;;;;5075775;28;20336;-75
2021/06/27 10:30:08;;;;;;;3.10;1.98;;;33.10;70.20;;;;;;5074487;28;20070;-75
2021/06/27 10:32:39;;;;;;;4.32;1.75;;;32.90;67.20;;;;;;5076007;28;20519;-74
2021/06/27 10:35:11;;;;;;;2.60;2.00;;;33.00;68.80;;;;;;5074540;28;20520;-73
2021/06/27 10:37:43;;;;;;;2.17;1.70;;;33.20;68.50;;;;;;5074231;28;20063;-75
2021/06/27 10:40:18;;;;;;;2.63;1.70;;;33.60;69.50;;;;;;5075866;28;20021;-75
2021/06/27 10:42:47;;;;;;;2.75;1.83;;;33.80;67.50;;;;;;5075600;28;20029;-75
2021/06/27 10:45:14;;;;;;;4.57;1.70;;;33.60;71.40;;;;;;5075591;28;20025;-73
2021/06/27 10:47:41;;;;;;;3.40;2.00;;;33.50;63.20;;;;;;5074163;28;20025;-74
2021/06/27 10:50:11;;;;;;;3.63;2.08;;;33.70;66.80;;;;;;5074010;28;20134;-74
2021/06/27 10:52:59;;;;;;;4.75;1.70;;;34.00;69.60;;;;;;5073729;28;20060;-74
2021/06/27 10:55:40;;;;;;;3.53;1.90;;;33.90;66.70;;;;;;5074067;28;20017;-73
2021/06/27 10:58:34;;;;;;;3.58;2.08;;;33.90;65.00;;;;;;5075043;28;20029;-73
2021/06/27 11:01:01;;;;;;;4.17;1.87;;;33.70;65.30;;;;;;5069544;28;20486;-73
2021/06/27 11:03:27;;;;;;;2.45;1.85;;;33.50;63.20;;;;;;5076009;28;20048;-75
2021/06/27 11:05:57;;;;;;;2.17;1.70;;;33.50;65.20;;;;;;5076259;28;20065;-74
2021/06/27 11:08:32;;;;;;;3.10;1.83;;;34.00;65.60;;;;;;5076346;28;20085;-76
2021/06/27 11:11:09;;;;;;;4.53;1.85;;;34.40;67.90;;;;;;5075763;28;20378;-74
2021/06/27 11:13:35;;;;;;;3.38;1.77;;;34.40;69.30;;;;;;5074527;28;20051;-74
2021/06/27 11:16:09;;;;;;;3.05;1.85;;;33.90;61.10;;;;;;5074766;28;20374;-73
2021/06/27 11:18:47;;;;;;;5.18;1.90;;;34.20;65.80;;;;;;5076013;28;20462;-76
2021/06/27 11:21:32;;;;;;;3.65;2.00;;;34.00;63.20;;;;;;5076243;28;20104;-76
2021/06/27 11:24:03;;;;;;;2.60;1.70;;;34.60;65.40;;;;;;5075537;28;20025;-77
2021/06/27 11:26:41;;;;;;;3.83;2.40;;;35.00;64.40;;;;;;5074880;28;20024;-76
2021/06/27 11:29:23;;;;;;;3.33;3.03;;;34.90;62.10;;;;;;5075440;28;20481;-75
2021/06/27 11:31:50;;;;;;;2.95;1.83;;;35.10;63.50;;;;;;5074593;28;20470;-75
2021/06/27 11:34:29;;;;;;;2.33;1.90;;;35.30;62.70;;;;;;5074274;28;20016;-74
2021/06/27 11:37:15;;;;;;;3.03;1.75;;;35.00;58.30;;;;;;5075099;28;20025;-76
2021/06/27 11:39:50;;;;;;;2.50;1.60;;;34.80;61.50;;;;;;5074753;28;20020;-77
2021/06/27 11:42:26;;;;;;;3.85;1.88;;;35.20;59.80;;;;;;5073432;28;20023;-76
2021/06/27 11:45:07;;;;;;;2.67;1.50;;;35.00;59.30;;;;;;5074294;28;20028;-76
2021/06/27 11:47:34;;;;;;;4.35;1.85;;;35.50;61.10;;;;;;5074355;28;20028;-73
2021/06/27 11:50:21;;;;;;;4.72;1.95;;;34.60;59.80;;;;;;5073515;28;20077;-76
2021/06/27 11:52:53;;;;;;;2.13;1.80;;;33.70;63.80;;;;;;5074413;28;20489;-76
2021/06/27 11:55:28;;;;;;;3.65;1.90;;;34.00;64.60;;;;;;5074274;28;20020;-75
2021/06/27 11:57:53;;;;;;;2.97;1.70;;;33.40;60.90;;;;;;5074314;28;20028;-74
2021/06/27 12:00:20;;;;;;;4.00;2.13;;;32.60;64.00;;;;;;5074271;28;20066;-76
2021/06/27 12:02:46;;;;;;;4.25;1.90;;;32.50;63.90;;;;;;5074045;28;20024;-75
2021/06/27 12:06:36;;;;;;;4.25;1.70;;;33.50;64.20;;;;;;5112054;27;20927;-75
2021/06/27 12:09:04;;;;;;;4.47;1.88;;;33.90;64.60;;;;;;5112091;28;20093;-75
2021/06/27 12:11:30;;;;;;;9.85;2.15;;;33.80;62.00;;;;;;5110226;28;20473;-76
2021/06/27 12:13:57;;;;;;;16.65;2.70;;;33.90;63.60;;;;;;5110422;28;20435;-71
2021/06/27 12:16:32;;;;;;;3.55;1.50;;;34.20;63.40;;;;;;5111304;28;20477;-73
2021/06/27 12:18:59;;;;;;;9.88;2.40;;;34.40;61.90;;;;;;5111825;28;20065;-72
2021/06/27 12:21:27;;;;;;;3.22;2.00;;;34.60;63.80;;;;;;5111520;28;20085;-71
2021/06/27 12:23:56;;;;;;;54.90;47.45;;;33.90;57.60;;;;;;5110389;28;20496;-71
2021/06/27 12:26:22;;;;;;;73.28;60.85;;;33.80;57.80;;;;;;5110709;28;20032;-72
2021/06/27 12:28:53;;;;;;;6.88;5.20;;;33.90;57.10;;;;;;5113236;28;20023;-71
2021/06/27 12:33:04;;;;;;;35.30;31.48;;;33.50;54.20;;;;;;5112558;27;20384;-75
2021/06/27 12:35:33;;;;;;;9.10;6.60;;;33.50;57.10;;;;;;5111966;28;20051;-75
2021/06/27 12:38:01;;;;;;;66.55;59.33;;;32.90;58.10;;;;;;5111882;28;20362;-73
2021/06/27 12:42:38;;;;;;;3.97;3.58;;;33.30;59.00;;;;;;5111724;27;20946;-73
2021/06/27 12:45:23;;;;;;;24.65;14.95;;;33.80;61.70;;;;;;5111611;28;20024;-75
2021/06/27 12:47:50;;;;;;;5.70;5.13;;;34.10;59.00;;;;;;5110261;28;20026;-73
2021/06/27 12:50:16;;;;;;;7.35;6.43;;;34.10;58.00;;;;;;5112035;28;20020;-73
2021/06/27 12:52:43;;;;;;;4.05;2.78;;;33.90;58.00;;;;;;5111060;28;20469;-72
2021/06/27 12:55:14;;;;;;;11.00;10.00;;;33.90;55.90;;;;;;5110912;28;20055;-71
2021/06/27 12:57:41;;;;;;;2.50;2.08;;;34.00;56.40;;;;;;5110436;28;20016;-73
2021/06/27 13:00:15;;;;;;;6.80;4.03;;;34.10;58.80;;;;;;5110823;27;20469;-72